Time;durP1;ratioP1;P1;durP2;ratioP2;P2;SDS_P1;SDS_P2;PMS_P1;PMS_P2;Temp;Humidity;BMP_temperature;BMP_pressure;BME280_temperature;BME280_humidity;BME280_pressure;Samples;Min_cycle;Max_cycle;Signal;HPM_P1;HPM_P2
2022/09/10 00:01:33;;;;;;;24.25;13.57;;;614.70;2432.00;;;;;;5077642;28;20024;-79
2022/09/10 00:04:00;;;;;;;19.33;14.13;;;614.60;2432.00;;;;;;5089063;28;20373;-79
2022/09/10 00:06:27;;;;;;;23.23;14.93;;;614.70;2432.00;;;;;;5080199;28;20111;-79
2022/09/10 00:08:56;;;;;;;20.42;14.27;;;614.80;2432.00;;;;;;5084455;28;20020;-79
2022/09/10 00:11:29;;;;;;;21.23;14.25;;;614.70;2432.00;;;;;;5080574;28;20024;-79
2022/09/10 00:13:56;;;;;;;21.33;15.05;;;614.60;2432.00;;;;;;5090204;28;20024;-80
2022/09/10 00:16:22;;;;;;;21.95;14.75;;;614.60;2432.00;;;;;;5080256;28;20450;-80
2022/09/10 00:18:49;;;;;;;24.23;13.75;;;614.70;2432.00;;;;;;5089003;28;20026;-80
2022/09/10 00:21:17;;;;;;;23.17;13.55;;;614.60;2432.00;;;;;;5093777;28;20070;-80
2022/09/10 00:23:44;;;;;;;17.85;14.10;;;614.70;2432.00;;;;;;5099779;28;20103;-80
2022/09/10 00:26:20;;;;;;;20.65;13.07;;;614.70;2432.00;;;;;;5087804;28;20028;-80
2022/09/10 00:28:50;;;;;;;23.90;13.23;;;614.70;2432.00;;;;;;5082777;28;20031;-79
2022/09/10 00:31:16;;;;;;;23.33;14.57;;;614.70;2432.00;;;;;;5084213;28;20035;-80
2022/09/10 00:33:42;;;;;;;17.35;13.48;;;614.60;2432.00;;;;;;5085650;28;20119;-79
2022/09/10 00:36:22;;;;;;;16.55;12.75;;;614.60;2432.00;;;;;;5077495;28;20115;-78
2022/09/10 00:38:50;;;;;;;22.65;14.35;;;614.50;2432.00;;;;;;5079722;28;20491;-79
2022/09/10 00:41:17;;;;;;;18.35;13.00;;;614.50;2432.00;;;;;;5080742;28;20385;-79
2022/09/10 00:43:54;;;;;;;17.92;13.15;;;614.50;2432.00;;;;;;5078950;28;20070;-79
2022/09/10 00:46:46;;;;;;;13.75;12.25;;;614.50;2432.00;;;;;;5080595;28;20119;-80
2022/09/10 00:49:31;;;;;;;18.92;13.07;;;614.40;2432.00;;;;;;5079771;28;20025;-80
2022/09/10 00:51:57;;;;;;;19.45;12.32;;;614.40;2432.00;;;;;;5077667;28;20853;-80
2022/09/10 00:54:26;;;;;;;20.63;12.40;;;614.40;2432.00;;;;;;5081634;28;20025;-80
2022/09/10 00:56:53;;;;;;;15.85;11.82;;;614.40;2432.00;;;;;;5063605;28;20103;-80
2022/09/10 00:59:22;;;;;;;16.42;13.13;;;614.40;2432.00;;;;;;5078179;28;20016;-79
2022/09/10 01:01:48;;;;;;;21.42;14.00;;;614.40;2432.00;;;;;;5079204;28;20490;-79
2022/09/10 01:04:15;;;;;;;18.75;11.88;;;614.60;2432.00;;;;;;5078611;28;20489;-80
2022/09/10 01:06:44;;;;;;;16.25;12.85;;;614.40;2432.00;;;;;;5078823;28;20545;-79
2022/09/10 01:09:11;;;;;;;21.98;13.07;;;614.40;2432.00;;;;;;5085103;28;20024;-79
2022/09/10 01:12:08;;;;;;;18.40;13.05;;;589.70;2432.00;;;;;;5080905;28;20020;-80
2022/09/10 01:15:08;;;;;;;19.98;13.30;;;589.70;2432.00;;;;;;5082808;28;20073;-79
2022/09/10 01:18:06;;;;;;;22.17;13.10;;;589.70;2432.00;;;;;;5080840;28;20072;-80
2022/09/10 01:20:40;;;;;;;17.25;12.57;;;589.60;2432.00;;;;;;5010507;28;20028;-79
2022/09/10 01:23:17;;;;;;;21.23;13.35;;;589.50;2432.00;;;;;;5021286;28;20061;-80
2022/09/10 01:26:12;;;;;;;18.45;12.95;;;589.50;2432.00;;;;;;5004768;28;20033;-79
2022/09/10 01:29:06;;;;;;;21.92;12.75;;;589.40;2432.00;;;;;;4981736;28;20026;-80
2022/09/10 01:31:57;;;;;;;18.85;12.02;;;589.40;2432.00;;;;;;4968587;28;20100;-80
2022/09/10 01:34:30;;;;;;;21.95;12.63;;;589.40;2432.00;;;;;;4990237;28;20042;-79
2022/09/10 01:37:04;;;;;;;15.45;12.75;;;589.40;2432.00;;;;;;4982801;28;20053;-79
2022/09/10 01:39:30;;;;;;;21.88;13.73;;;589.20;2432.00;;;;;;4989839;28;20053;-79
2022/09/10 01:41:55;;;;;;;16.63;12.20;;;589.20;2432.00;;;;;;4990371;28;20062;-80
2022/09/10 01:44:48;;;;;;;14.32;12.05;;;589.20;2432.00;;;;;;4974900;28;20077;-80
2022/09/10 01:47:30;;;;;;;21.98;12.68;;;589.20;2432.00;;;;;;4981660;28;20031;-80
2022/09/10 01:50:44;;;;;;;24.40;12.98;;;589.10;2432.00;;;;;;4982084;28;20022;-79
2022/09/10 01:53:39;;;;;;;15.85;11.60;;;589.10;2432.00;;;;;;4962851;28;20038;-79
2022/09/10 01:56:21;;;;;;;20.08;11.63;;;589.10;2432.00;;;;;;4979153;28;20038;-79
2022/09/10 01:58:47;;;;;;;14.75;11.32;;;589.20;2432.00;;;;;;5008314;28;20030;-79
2022/09/10 02:01:30;;;;;;;18.10;11.93;;;589.10;2432.00;;;;;;4996604;28;20576;-80
2022/09/10 02:04:00;;;;;;;16.90;11.23;;;589.10;2432.00;;;;;;5006194;28;20048;-79
2022/09/10 02:06:29;;;;;;;14.20;11.15;;;589.00;2432.00;;;;;;5063795;28;20035;-79
2022/09/10 02:08:57;;;;;;;15.25;12.00;;;589.10;2432.00;;;;;;5074041;28;20040;-80
2022/09/10 02:11:23;;;;;;;14.63;10.95;;;589.00;2432.00;;;;;;5086825;28;20031;-79
2022/09/10 02:13:49;;;;;;;20.73;10.40;;;589.00;2432.00;;;;;;5072672;28;20019;-79
2022/09/10 02:16:25;;;;;;;14.70;10.30;;;589.00;2432.00;;;;;;5074753;28;20044;-79
2022/09/10 02:18:50;;;;;;;;;;;589.00;2432.00;;;;;;5078367;28;20040;-79
2022/09/10 02:21:17;;;;;;;13.73;10.73;;;588.80;2432.00;;;;;;5086074;28;20402;-80
2022/09/10 02:23:47;;;;;;;18.85;11.85;;;564.10;2432.00;;;;;;5086515;28;20046;-79
2022/09/10 02:26:14;;;;;;;16.70;10.68;;;564.10;2432.00;;;;;;5076437;28;20052;-80
2022/09/10 02:28:48;;;;;;;14.02;10.30;;;564.00;2432.00;;;;;;5083055;28;20469;-79
2022/09/10 02:31:14;;;;;;;14.75;11.18;;;563.90;2432.00;;;;;;5079574;28;20099;-79
2022/09/10 02:33:42;;;;;;;14.60;11.90;;;563.90;2432.00;;;;;;5077910;28;20248;-79
2022/09/10 02:36:07;;;;;;;16.08;12.02;;;563.90;2432.00;;;;;;5074274;28;20052;-79
2022/09/10 02:38:33;;;;;;;14.20;12.35;;;563.90;2432.00;;;;;;5093158;28;20055;-79
2022/09/10 02:40:59;;;;;;;20.33;12.68;;;563.90;2432.00;;;;;;5082778;28;20028;-80
2022/09/10 02:43:26;;;;;;;19.50;13.38;;;563.90;2432.00;;;;;;5083672;28;20139;-79
2022/09/10 02:45:58;;;;;;;23.55;13.43;;;588.90;2432.00;;;;;;5076168;28;20028;-79
2022/09/10 02:48:26;;;;;;;26.48;15.00;;;564.10;2432.00;;;;;;5081395;28;20028;-79
2022/09/10 02:50:52;;;;;;;20.63;15.93;;;564.00;2432.00;;;;;;5082787;28;20027;-79
2022/09/10 02:53:19;;;;;;;18.90;14.35;;;563.90;2432.00;;;;;;5078458;28;20028;-80
2022/09/10 02:55:46;;;;;;;19.10;14.95;;;564.00;2432.00;;;;;;5078638;28;20115;-79
2022/09/10 02:58:13;;;;;;;21.08;13.55;;;564.00;2432.00;;;;;;5072759;28;20017;-80
2022/09/10 03:00:39;;;;;;;19.33;14.85;;;564.00;2432.00;;;;;;5081518;28;20048;-79
2022/09/10 03:03:05;;;;;;;20.02;14.80;;;563.90;2432.00;;;;;;5081212;28;20040;-79
2022/09/10 03:05:31;;;;;;;21.40;15.20;;;563.90;2432.00;;;;;;5078635;28;20216;-80
2022/09/10 03:07:59;;;;;;;24.20;15.88;;;563.90;2432.00;;;;;;5082627;28;20107;-79
2022/09/10 03:10:25;;;;;;;19.83;15.32;;;563.90;2432.00;;;;;;5080037;28;20028;-78
2022/09/10 03:12:52;;;;;;;20.15;17.02;;;563.90;2432.00;;;;;;5081361;28;20020;-79
2022/09/10 03:15:19;;;;;;;21.20;17.10;;;563.90;2432.00;;;;;;5080676;28;20043;-79
2022/09/10 03:17:45;;;;;;;25.67;17.55;;;563.90;2432.00;;;;;;5084818;28;20043;-79
2022/09/10 03:20:12;;;;;;;22.65;17.27;;;563.90;2432.00;;;;;;5076160;28;20016;-80
2022/09/10 03:22:38;;;;;;;23.27;17.08;;;563.80;2432.00;;;;;;5073089;28;20021;-80
2022/09/10 03:25:05;;;;;;;25.60;17.88;;;563.80;2432.00;;;;;;5100475;28;20027;-77
2022/09/10 03:27:31;;;;;;;28.75;20.85;;;563.70;2432.00;;;;;;5078074;28;20052;-78
2022/09/10 03:29:56;;;;;;;24.90;19.65;;;563.70;2432.00;;;;;;5081896;28;20059;-78
2022/09/10 03:32:22;;;;;;;30.77;20.13;;;563.80;2432.00;;;;;;5080502;28;20032;-80
2022/09/10 03:34:48;;;;;;;25.20;18.83;;;563.90;2432.00;;;;;;5101377;28;20039;-78
2022/09/10 03:37:14;;;;;;;24.40;19.58;;;563.80;2432.00;;;;;;5079748;28;20020;-78
2022/09/10 03:39:40;;;;;;;30.40;21.17;;;563.80;2432.00;;;;;;5080339;28;20081;-80
2022/09/10 03:42:06;;;;;;;31.92;22.08;;;563.90;2432.00;;;;;;5084574;28;20012;-80
2022/09/10 03:44:32;;;;;;;28.23;22.33;;;563.80;2432.00;;;;;;5084493;28;20389;-77
2022/09/10 03:46:59;;;;;;;30.90;23.65;;;563.80;2432.00;;;;;;5080938;28;20035;-78
2022/09/10 03:49:25;;;;;;;32.83;24.58;;;563.80;2432.00;;;;;;5082717;28;20051;-80
2022/09/10 03:51:52;;;;;;;33.40;26.27;;;563.80;2432.00;;;;;;5081102;28;20017;-78
2022/09/10 03:54:18;;;;;;;41.75;26.88;;;563.80;2432.00;;;;;;5085817;28;20016;-78
2022/09/10 03:56:44;;;;;;;38.95;29.35;;;563.80;2432.00;;;;;;5075988;28;20020;-79
2022/09/10 03:59:12;;;;;;;46.60;30.80;;;563.80;2432.00;;;;;;5081129;28;20070;-79
2022/09/10 04:01:38;;;;;;;37.75;27.15;;;563.80;2432.00;;;;;;5074628;28;20032;-78
2022/09/10 04:04:04;;;;;;;41.10;29.08;;;563.80;2432.00;;;;;;5084244;28;20039;-77
2022/09/10 04:06:33;;;;;;;43.70;30.33;;;563.80;2432.00;;;;;;5075536;28;20124;-77
2022/09/10 04:09:00;;;;;;;45.67;29.73;;;563.70;2432.00;;;;;;5079818;28;20275;-77
2022/09/10 04:11:27;;;;;;;49.97;28.15;;;563.80;2432.00;;;;;;5084271;28;20044;-78
2022/09/10 04:13:54;;;;;;;42.33;29.02;;;563.80;2432.00;;;;;;5080392;28;20019;-79
2022/09/10 04:16:21;;;;;;;39.50;28.50;;;563.80;2432.00;;;;;;5074676;28;20429;-77
2022/09/10 04:18:46;;;;;;;48.72;30.52;;;563.80;2432.00;;;;;;5078569;28;20081;-78
2022/09/10 04:21:12;;;;;;;44.88;28.88;;;563.80;2432.00;;;;;;5082691;28;20024;-80
2022/09/10 04:23:41;;;;;;;41.88;30.55;;;563.80;2432.00;;;;;;5080826;28;20141;-79
2022/09/10 04:26:12;;;;;;;41.70;29.17;;;563.90;2432.00;;;;;;5076995;28;20047;-80
2022/09/10 04:28:38;;;;;;;43.50;29.38;;;563.90;2432.00;;;;;;5079718;28;20023;-77
2022/09/10 04:31:03;;;;;;;44.45;26.80;;;564.00;2432.00;;;;;;5082957;28;20032;-77
2022/09/10 04:33:29;;;;;;;39.47;26.05;;;563.90;2432.00;;;;;;5082409;28;20021;-77
2022/09/10 04:35:59;;;;;;;43.45;25.85;;;564.00;2432.00;;;;;;5079321;28;20078;-78
2022/09/10 04:38:25;;;;;;;40.60;26.38;;;564.00;2432.00;;;;;;5083116;28;20032;-79
2022/09/10 04:40:50;;;;;;;37.20;26.02;;;564.00;2432.00;;;;;;5075686;28;20359;-77
2022/09/10 04:43:17;;;;;;;39.30;25.98;;;564.00;2432.00;;;;;;5074292;28;20028;-76
2022/09/10 04:45:43;;;;;;;35.05;24.80;;;564.00;2432.00;;;;;;5075653;28;20123;-78
2022/09/10 04:48:09;;;;;;;35.83;24.45;;;563.90;2432.00;;;;;;5073445;28;20078;-77
2022/09/10 04:50:38;;;;;;;36.42;24.73;;;563.90;2432.00;;;;;;5083420;28;20056;-85
2022/09/10 04:53:03;;;;;;;36.92;25.63;;;564.00;2432.00;;;;;;5091878;28;20474;-86
2022/09/10 04:55:30;;;;;;;40.95;26.60;;;564.00;2432.00;;;;;;5093471;28;20039;-79
2022/09/10 04:57:56;;;;;;;37.92;25.15;;;588.80;2432.00;;;;;;5087594;28;20494;-80
2022/09/10 05:00:22;;;;;;;37.35;26.38;;;564.00;2432.00;;;;;;5082236;28;20032;-81
2022/09/10 05:02:48;;;;;;;36.72;26.15;;;564.10;2432.00;;;;;;5077182;28;20071;-81
2022/09/10 05:05:14;;;;;;;35.55;23.83;;;588.80;2432.00;;;;;;5073722;28;20032;-78
2022/09/10 05:07:40;;;;;;;39.63;25.23;;;588.80;2432.00;;;;;;5092171;28;20478;-78
2022/09/10 05:10:09;;;;;;;35.33;24.45;;;588.80;2432.00;;;;;;5092014;28;20059;-78
2022/09/10 05:12:37;;;;;;;36.58;25.20;;;589.00;2432.00;;;;;;5080550;28;20032;-81
2022/09/10 05:15:05;;;;;;;38.92;24.73;;;588.90;2432.00;;;;;;5077575;28;20082;-78
2022/09/10 05:17:32;;;;;;;35.35;24.23;;;588.80;2432.00;;;;;;5073761;28;20051;-80
2022/09/10 05:19:58;;;;;;;36.72;24.48;;;588.80;2432.00;;;;;;5078293;28;20021;-79
2022/09/10 05:22:24;;;;;;;34.83;23.33;;;588.80;2432.00;;;;;;5078980;28;20029;-80
2022/09/10 05:24:49;;;;;;;42.70;26.33;;;588.80;2432.00;;;;;;5071214;28;20051;-81
2022/09/10 05:27:15;;;;;;;47.20;27.80;;;588.80;2432.00;;;;;;5077771;28;20028;-81
2022/09/10 05:29:41;;;;;;;38.17;26.70;;;564.10;2432.00;;;;;;5085020;28;20115;-79
2022/09/10 05:32:10;;;;;;;40.38;24.42;;;564.10;2432.00;;;;;;5081269;28;20103;-79
2022/09/10 05:34:38;;;;;;;37.88;25.42;;;564.10;2432.00;;;;;;5082262;28;20024;-79
2022/09/10 05:37:04;;;;;;;36.35;25.50;;;564.10;2432.00;;;;;;5080055;28;20069;-81
2022/09/10 05:39:30;;;;;;;33.90;22.92;;;564.10;2432.00;;;;;;5085350;28;20057;-84
2022/09/10 05:41:56;;;;;;;39.42;23.95;;;588.80;2432.00;;;;;;5082815;28;20020;-83
2022/09/10 05:44:21;;;;;;;36.90;24.38;;;588.80;2432.00;;;;;;5074772;28;20048;-83
2022/09/10 05:46:47;;;;;;;37.78;24.92;;;588.80;2432.00;;;;;;5080304;28;20024;-80
2022/09/10 05:49:13;;;;;;;38.10;23.92;;;588.80;2432.00;;;;;;5079140;28;20059;-80
2022/09/10 05:51:39;;;;;;;33.88;21.88;;;588.80;2432.00;;;;;;5073933;28;20396;-81
2022/09/10 05:54:05;;;;;;;29.25;21.75;;;588.80;2432.00;;;;;;5082669;28;20012;-85
2022/09/10 05:56:30;;;;;;;32.72;20.00;;;588.80;2432.00;;;;;;5079714;28;20036;-83
2022/09/10 05:58:56;;;;;;;30.30;20.75;;;564.10;2432.00;;;;;;5095993;28;20124;-81
2022/09/10 06:01:22;;;;;;;32.42;21.23;;;564.10;2432.00;;;;;;5089914;28;20486;-83
2022/09/10 06:03:49;;;;;;;27.55;20.73;;;564.10;2432.00;;;;;;5080762;28;20471;-80
2022/09/10 06:06:16;;;;;;;24.77;18.55;;;564.10;2432.00;;;;;;5095447;28;20114;-81
2022/09/10 06:08:42;;;;;;;26.38;19.20;;;564.10;2432.00;;;;;;5095376;28;20024;-80
2022/09/10 06:11:09;;;;;;;29.27;18.20;;;564.10;2432.00;;;;;;5095736;28;20027;-81
2022/09/10 06:13:38;;;;;;;26.02;17.25;;;564.10;2432.00;;;;;;5094846;28;20024;-82
2022/09/10 06:16:04;;;;;;;20.92;14.93;;;564.10;2432.00;;;;;;5095025;28;20036;-79
2022/09/10 06:18:30;;;;;;;19.77;14.60;;;564.00;2432.00;;;;;;5087388;28;20048;-79
2022/09/10 06:21:04;;;;;;;17.83;13.13;;;564.00;2432.00;;;;;;5074834;28;20036;-78
2022/09/10 06:23:30;;;;;;;18.70;13.00;;;564.00;2432.00;;;;;;5094706;28;20051;-79
2022/09/10 06:26:05;;;;;;;19.33;11.98;;;564.00;2432.00;;;;;;5094970;28;20393;-78
2022/09/10 06:28:32;;;;;;;14.60;11.50;;;564.00;2432.00;;;;;;5089296;28;20111;-83
2022/09/10 06:30:58;;;;;;;15.35;10.35;;;564.00;2432.00;;;;;;5081999;28;20027;-82
2022/09/10 06:33:24;;;;;;;13.10;10.20;;;563.90;2432.00;;;;;;5079622;28;20074;-78
2022/09/10 06:35:57;;;;;;;14.80;9.55;;;564.00;2432.00;;;;;;5076813;28;20028;-83
2022/09/10 06:38:26;;;;;;;13.07;8.10;;;564.10;2432.00;;;;;;5074799;28;20483;-78
2022/09/10 06:40:59;;;;;;;11.98;7.88;;;564.00;2432.00;;;;;;5085121;28;20024;-78
2022/09/10 06:43:26;;;;;;;10.15;8.00;;;563.90;2432.00;;;;;;5094003;28;20124;-80
2022/09/10 06:45:53;;;;;;;11.15;8.02;;;563.90;2432.00;;;;;;5095419;28;20038;-81
2022/09/10 06:48:21;;;;;;;11.65;8.55;;;563.90;2432.00;;;;;;5094034;28;20025;-80
2022/09/10 06:50:55;;;;;;;12.43;8.57;;;563.90;2432.00;;;;;;5094266;28;20051;-80
2022/09/10 06:53:22;;;;;;;12.77;9.63;;;563.90;2432.00;;;;;;5095437;28;20039;-80
2022/09/10 06:55:52;;;;;;;13.25;9.02;;;563.90;2432.00;;;;;;5094201;28;20581;-80
2022/09/10 06:58:22;;;;;;;11.05;9.13;;;563.90;2432.00;;;;;;5095511;28;20020;-79
2022/09/10 07:00:49;;;;;;;10.32;7.72;;;564.00;2432.00;;;;;;5095145;28;20064;-80
2022/09/10 07:03:19;;;;;;;12.95;7.35;;;564.00;2432.00;;;;;;5095644;28;20024;-81
2022/09/10 07:05:46;;;;;;;15.07;9.45;;;564.00;2432.00;;;;;;5093642;28;20023;-79
2022/09/10 07:08:14;;;;;;;10.70;6.68;;;564.10;2432.00;;;;;;5093568;28;20370;-80
2022/09/10 07:10:43;;;;;;;14.40;7.72;;;564.00;2432.00;;;;;;5093447;28;20031;-77
2022/09/10 07:13:11;;;;;;;10.63;7.10;;;564.00;2432.00;;;;;;5095073;28;20114;-77
2022/09/10 07:15:45;;;;;;;10.20;8.15;;;564.10;2432.00;;;;;;5094633;28;20040;-74
2022/09/10 07:18:15;;;;;;;12.05;7.93;;;564.10;2432.00;;;;;;5094411;28;20040;-75
2022/09/10 07:20:42;;;;;;;12.23;7.18;;;564.10;2432.00;;;;;;5094626;28;20126;-75
2022/09/10 07:23:09;;;;;;;13.70;8.15;;;564.10;2432.00;;;;;;5094419;28;20035;-80
2022/09/10 07:25:35;;;;;;;11.27;7.35;;;564.10;2432.00;;;;;;5094802;28;20031;-77
2022/09/10 07:28:00;;;;;;;10.07;7.25;;;564.10;2432.00;;;;;;5094373;28;20020;-76
2022/09/10 07:30:28;;;;;;;9.48;7.25;;;564.10;2432.00;;;;;;5094717;28;20474;-76
2022/09/10 07:32:54;;;;;;;9.68;7.15;;;588.90;2432.00;;;;;;5093353;28;20048;-77
2022/09/10 07:35:20;;;;;;;9.30;6.47;;;564.10;2432.00;;;;;;5092638;28;20059;-76
2022/09/10 07:37:46;;;;;;;10.95;6.25;;;564.10;2432.00;;;;;;5094597;28;20454;-79
2022/09/10 07:40:12;;;;;;;9.88;6.53;;;588.90;2432.00;;;;;;5094292;28;20034;-77
2022/09/10 07:42:38;;;;;;;6.88;5.70;;;589.10;2432.00;;;;;;5092899;28;20017;-80
2022/09/10 07:45:04;;;;;;;11.00;6.38;;;589.10;2432.00;;;;;;5092256;28;20047;-78
2022/09/10 07:47:32;;;;;;;8.07;5.43;;;589.00;2432.00;;;;;;5092941;28;20036;-76
2022/09/10 07:49:58;;;;;;;8.02;5.57;;;589.00;2432.00;;;;;;5083325;28;20026;-79
2022/09/10 07:52:24;;;;;;;9.35;5.28;;;588.90;2432.00;;;;;;5078186;28;20090;-76
2022/09/10 07:54:50;;;;;;;7.20;4.68;;;589.20;2432.00;;;;;;5075530;28;20501;-74
2022/09/10 07:57:16;;;;;;;7.57;4.03;;;589.00;2432.00;;;;;;5073563;28;20021;-77
2022/09/10 07:59:42;;;;;;;8.65;4.07;;;589.10;2432.00;;;;;;5087697;28;20469;-79
2022/09/10 08:02:17;;;;;;;7.15;4.28;;;589.10;2432.00;;;;;;5086381;28;20027;-83
2022/09/10 08:04:42;;;;;;;5.97;4.47;;;589.20;2432.00;;;;;;5080065;28;20560;-79
2022/09/10 08:07:08;;;;;;;9.40;4.68;;;589.20;2432.00;;;;;;5097133;28;20107;-76
2022/09/10 08:09:34;;;;;;;7.07;4.43;;;589.00;2432.00;;;;;;5089261;28;20037;-75
2022/09/10 08:12:00;;;;;;;8.07;4.85;;;588.90;2432.00;;;;;;5073244;28;20458;-74
2022/09/10 08:14:25;;;;;;;8.15;4.80;;;588.80;2432.00;;;;;;5077891;28;20021;-78
2022/09/10 08:16:51;;;;;;;10.13;5.20;;;588.90;2432.00;;;;;;5080100;28;20450;-77
2022/09/10 08:19:17;;;;;;;10.23;5.25;;;588.80;2432.00;;;;;;5096612;28;20024;-79
2022/09/10 08:21:44;;;;;;;6.68;4.85;;;588.80;2432.00;;;;;;5077217;28;20048;-77
2022/09/10 08:24:09;;;;;;;10.40;5.55;;;588.80;2432.00;;;;;;5093400;28;20023;-77
2022/09/10 08:26:35;;;;;;;10.50;5.25;;;588.80;2432.00;;;;;;5091978;28;20036;-76
2022/09/10 08:29:01;;;;;;;8.65;5.10;;;588.90;2432.00;;;;;;5093113;28;20028;-78
2022/09/10 08:31:27;;;;;;;7.55;4.90;;;588.90;2432.00;;;;;;5093484;28;20028;-79
2022/09/10 08:33:55;;;;;;;9.40;4.85;;;589.00;2432.00;;;;;;5091838;28;20114;-75
2022/09/10 08:36:22;;;;;;;7.72;5.28;;;589.00;2432.00;;;;;;5078160;28;20402;-75
2022/09/10 08:38:49;;;;;;;9.75;5.28;;;589.10;2432.00;;;;;;5077765;28;20008;-76
2022/09/10 08:41:34;;;;;;;12.00;6.30;;;589.00;2432.00;;;;;;5092867;28;20031;-77
2022/09/10 08:44:09;;;;;;;12.25;5.65;;;589.10;2432.00;;;;;;5091932;28;20495;-77
2022/09/10 08:46:56;;;;;;;14.13;5.97;;;589.10;2432.00;;;;;;5084295;28;20079;-75
2022/09/10 08:49:31;;;;;;;7.60;5.95;;;589.00;2432.00;;;;;;5077119;28;20146;-83
2022/09/10 08:52:28;;;;;;;7.78;5.30;;;589.00;2432.00;;;;;;5088500;28;20039;-81
2022/09/10 08:55:15;;;;;;;7.95;5.18;;;589.00;2432.00;;;;;;5070493;28;20039;-76
2022/09/10 08:57:50;;;;;;;8.45;5.68;;;589.10;2432.00;;;;;;5092185;28;20465;-76
2022/09/10 09:00:37;;;;;;;7.38;4.97;;;589.10;2432.00;;;;;;5074653;28;20027;-78
2022/09/10 09:03:09;;;;;;;6.82;4.65;;;589.10;2432.00;;;;;;5096969;28;20025;-83
2022/09/10 09:05:59;;;;;;;7.88;4.82;;;589.20;2432.00;;;;;;5074046;28;20017;-79
2022/09/10 09:08:29;;;;;;;10.30;5.15;;;589.30;2432.00;;;;;;5093666;28;20071;-80
2022/09/10 09:11:01;;;;;;;7.40;5.18;;;589.50;2432.00;;;;;;5071701;28;20012;-78
2022/09/10 09:14:02;;;;;;;8.48;4.60;;;589.60;2432.00;;;;;;5074333;28;20022;-78
2022/09/10 09:16:43;;;;;;;6.20;4.07;;;589.70;2432.00;;;;;;5067254;28;20044;-78
2022/09/10 09:19:35;;;;;;;6.90;4.47;;;589.70;2432.00;;;;;;5072893;28;20025;-78
2022/09/10 09:22:47;;;;;;;5.78;4.50;;;589.70;2432.00;;;;;;5077693;28;20076;-78
2022/09/10 09:25:22;;;;;;;6.38;3.60;;;589.60;2432.00;;;;;;5069817;28;20486;-80
2022/09/10 09:27:53;;;;;;;8.45;4.28;;;589.70;2432.00;;;;;;5053196;28;20483;-81
2022/09/10 09:30:23;;;;;;;7.57;4.10;;;589.70;2432.00;;;;;;5064807;28;20019;-76
2022/09/10 09:32:49;;;;;;;6.78;3.97;;;589.70;2432.00;;;;;;5078611;28;20025;-78
2022/09/10 09:35:31;;;;;;;5.78;3.60;;;614.40;2432.00;;;;;;5063543;28;20111;-79
2022/09/10 09:38:02;;;;;;;5.97;3.85;;;614.40;2432.00;;;;;;5060316;28;20032;-79
2022/09/10 09:40:32;;;;;;;5.22;3.45;;;614.40;2432.00;;;;;;5040563;28;20029;-78
2022/09/10 09:43:08;;;;;;;7.05;3.75;;;614.50;2432.00;;;;;;5048210;28;20497;-80
2022/09/10 09:45:46;;;;;;;5.55;3.38;;;614.80;2432.00;;;;;;5039206;28;20166;-79
2022/09/10 09:48:17;;;;;;;8.00;4.10;;;615.10;2432.00;;;;;;5039847;28;20029;-80
2022/09/10 09:50:49;;;;;;;9.57;3.97;;;615.30;2432.00;;;;;;5055509;28;20490;-79
2022/09/10 09:53:27;;;;;;;6.25;3.28;;;640.00;2432.00;;;;;;5064037;28;20143;-79
2022/09/10 09:55:58;;;;;;;4.70;3.38;;;640.10;2432.00;;;;;;5032880;28;20036;-79
2022/09/10 09:58:25;;;;;;;8.60;2.70;;;640.40;2432.00;;;;;;5055883;28;20033;-79
2022/09/10 10:01:04;;;;;;;6.20;2.97;;;640.40;2432.00;;;;;;5092061;28;20032;-79
2022/09/10 10:04:01;;;;;;;10.35;3.80;;;640.70;2432.00;;;;;;5091927;28;20028;-79
2022/09/10 10:06:31;;;;;;;8.10;3.45;;;640.80;2432.00;;;;;;5090764;28;20024;-80
2022/09/10 10:09:00;;;;;;;4.40;2.83;;;640.80;2432.00;;;;;;5064329;28;20454;-79
2022/09/10 10:11:40;;;;;;;6.55;3.28;;;640.70;2432.00;;;;;;5090586;28;20016;-80
2022/09/10 10:14:29;;;;;;;5.65;2.90;;;665.90;2432.00;;;;;;5063799;28;20031;-78
2022/09/10 10:16:56;;;;;;;5.32;2.90;;;665.70;2432.00;;;;;;5090326;28;20540;-79
2022/09/10 10:19:31;;;;;;;5.85;3.17;;;666.00;2432.00;;;;;;5076443;28;20025;-78
2022/09/10 10:22:20;;;;;;;15.43;3.45;;;666.00;2432.00;;;;;;5091921;28;20046;-78
2022/09/10 10:24:48;;;;;;;4.28;2.65;;;666.00;2432.00;;;;;;5087739;28;20096;-79
2022/09/10 10:27:24;;;;;;;6.65;3.00;;;665.70;2432.00;;;;;;5079503;28;20020;-78
2022/09/10 10:29:55;;;;;;;6.53;3.17;;;640.70;2432.00;;;;;;5090800;28;20048;-79
2022/09/10 10:32:37;;;;;;;6.47;3.17;;;640.60;2432.00;;;;;;5090455;28;20029;-78
2022/09/10 10:35:25;;;;;;;9.65;2.53;;;640.60;2432.00;;;;;;5076062;28;20025;-77
2022/09/10 10:38:00;;;;;;;7.45;3.03;;;665.70;2432.00;;;;;;5090447;28;20032;-77
2022/09/10 10:40:35;;;;;;;5.25;2.65;;;666.30;2432.00;;;;;;5070680;28;20059;-77
2022/09/10 10:43:35;;;;;;;5.93;2.53;;;665.70;2432.00;;;;;;5086084;28;20070;-79
2022/09/10 10:46:11;;;;;;;5.82;2.88;;;666.00;2432.00;;;;;;5083905;28;20041;-77
2022/09/10 10:48:59;;;;;;;;;;;665.70;2432.00;;;;;;5076319;28;20161;-80
2022/09/10 10:51:38;;;;;;;6.18;2.20;;;666.00;2432.00;;;;;;5075292;28;19912;-77
2022/09/10 10:54:37;;;;;;;5.47;2.33;;;665.90;2432.00;;;;;;5077955;28;20036;-76
2022/09/10 10:57:45;;;;;;;6.22;2.53;;;665.90;2432.00;;;;;;5074411;28;20111;-80
2022/09/10 11:00:16;;;;;;;5.93;2.35;;;666.20;2432.00;;;;;;5095109;28;20393;-76
2022/09/10 11:03:03;;;;;;;4.70;2.90;;;691.20;2432.00;;;;;;5093126;28;20028;-77
2022/09/10 11:05:47;;;;;;;5.18;2.50;;;691.70;2406.40;;;;;;5091288;28;20020;-77
2022/09/10 11:08:24;;;;;;;7.10;2.67;;;692.10;2304.00;;;;;;5081928;28;20064;-76
2022/09/10 11:10:59;;;;;;;4.50;2.30;;;716.90;2304.00;;;;;;5100701;28;20056;-77
2022/09/10 11:13:49;;;;;;;2.53;1.88;;;717.20;2176.00;;;;;;5076007;28;20524;-78
2022/09/10 11:16:26;;;;;;;3.47;1.95;;;717.30;2150.40;;;;;;5079233;28;20048;-81
2022/09/10 11:18:55;;;;;;;7.65;2.00;;;692.10;2201.60;;;;;;5079073;28;20086;-77
2022/09/10 11:21:37;;;;;;;3.45;2.13;;;692.10;2201.60;;;;;;5074728;28;20355;-78
2022/09/10 11:24:23;;;;;;;3.40;2.13;;;717.10;2124.80;;;;;;5089480;28;20044;-77
2022/09/10 11:27:01;;;;;;;5.18;2.25;;;692.00;2124.80;;;;;;5071227;28;20021;-79
2022/09/10 11:29:56;;;;;;;5.22;1.67;;;691.90;2150.40;;;;;;5077752;28;20020;-80
2022/09/10 11:32:35;;;;;;;7.07;2.28;;;717.20;2176.00;;;;;;5074928;28;20060;-80
2022/09/10 11:35:01;;;;;;;5.28;1.92;;;692.00;2099.20;;;;;;5074064;28;20550;-79
2022/09/10 11:37:54;;;;;;;5.32;2.10;;;716.80;2099.20;;;;;;5074407;28;20107;-76
2022/09/10 11:40:30;;;;;;;5.32;1.80;;;716.90;2124.80;;;;;;5075125;28;20108;-78
2022/09/10 11:43:02;;;;;;;3.47;2.00;;;717.20;1996.80;;;;;;5086854;28;20032;-77
2022/09/10 11:45:54;;;;;;;3.13;1.85;;;717.50;2048.00;;;;;;5103789;28;20032;-79
2022/09/10 11:48:27;;;;;;;3.65;1.70;;;717.50;1971.20;;;;;;5081698;28;20028;-81
2022/09/10 11:51:21;;;;;;;3.05;1.60;;;717.50;2022.40;;;;;;5065868;28;20027;-77
2022/09/10 11:53:47;;;;;;;7.13;1.98;;;742.50;1996.80;;;;;;5006784;28;20076;-78
2022/09/10 11:56:38;;;;;;;2.88;1.83;;;742.60;1971.20;;;;;;4991303;28;20061;-78
2022/09/10 11:59:41;;;;;;;5.38;2.17;;;742.80;1971.20;;;;;;4994885;28;20592;-78
2022/09/10 12:02:56;;;;;;;6.43;1.90;;;742.80;1920.00;;;;;;4992200;28;20110;-78
2022/09/10 12:05:24;;;;;;;3.08;2.00;;;742.40;1920.00;;;;;;4999221;28;20061;-79
2022/09/10 12:08:28;;;;;;;5.05;2.22;;;742.40;1945.60;;;;;;4993859;28;20563;-78
2022/09/10 12:10:59;;;;;;;6.20;1.95;;;742.60;2022.40;;;;;;5000539;28;20045;-77
2022/09/10 12:13:25;;;;;;;4.13;1.95;;;717.70;1945.60;;;;;;4988314;28;20030;-76
2022/09/10 12:15:58;;;;;;;3.22;1.88;;;717.40;2048.00;;;;;;4991606;28;20057;-77
2022/09/10 12:18:40;;;;;;;5.40;1.90;;;717.40;2022.40;;;;;;4993706;28;20209;-77
2022/09/10 12:21:38;;;;;;;3.15;1.60;;;742.40;1996.80;;;;;;4995283;28;20018;-79
2022/09/10 12:24:43;;;;;;;5.38;1.80;;;742.50;1920.00;;;;;;4933885;29;20518;-76
2022/09/10 12:27:16;;;;;;;4.70;1.90;;;742.40;1920.00;;;;;;4858989;29;20053;-79
2022/09/10 12:29:43;;;;;;;4.43;1.67;;;742.70;1894.40;;;;;;4863990;29;20060;-80
2022/09/10 12:32:18;;;;;;;3.72;1.75;;;742.90;1894.40;;;;;;4898246;29;20036;-77